LFSBLFBE

Guest
Details From LFSB - Basle-mulhouse
To LFBE - Bergerac Roumaniere
Flight Number -
Tags Generated
Created
Modified
Stats Distance 336 nm / 622 km
Max Altitude 0 ft / 0 m
Waypoints 3
Social Downloads 0
Likes 0
Share VATSIM

Download

Looking for another format? Having issues loading an existing format? Contact us
Advertisement - Login to hide

Notes

Generated

Route

LFSB BUGUS LFBE

ID Type Via Altitude Latitude Longitude Leg Dist Tot Dist Heading (true) Name
O LFSB APT - 0 ft / 0 m 47.60118˚ 7.51797˚ - 0 nm - Bale-Mulhouse
BUGUS FIX - 0 ft / 0 m 45.00000˚ 0.96056˚ 313 nm 313 nm 243° / 238° -
O LFBE APT - 0 ft / 0 m 44.82527˚ 0.50495˚ 22 nm 335 nm 242° / 241° -

Altitude Profile

Advertisement - Login to hide

Weather


0- 5 10 15 20 25 30 35+ Temperature / ° C

Clouds and Precipitation
Forecast for 2017-12-18 18:00 UTC. Updated 2 hours ago

Ground ~20,000 ft ~40,000 ft Winds

LFSB

Details ICAO LFSB (MLH)
Name Bale-Mulhouse
Region France
Timezone Europe/Paris (UTC+1.0)
Stats Elevation 885 ft / 270 m (AMSL)
Location 47.595810° 7.524806°
Runways 2
Magnetic Variation 2.086° E

METAR

LFSB 181630Z VRB03KT 9999 BKN009 BKN023 02/01 Q1025 NOSIG

Decode

TAF

TAF AMD LFSB 181218Z 1812/1912 18004KT 9999 OVC013 TEMPO 1812/1813 -SNRA BECMG 1812/1814 28005KT TEMPO 1812/1818 BKN008 OVC025 BECMG 1818/1820 VRB03KT 4000 BR BKN008 TEMPO 1821/1906 1500 -DZ -SG BR OVC004 TEMPO 1906/1910 2500 BECMG 1910/1912 8000 NSW BKN010 OVC020

Decode

Departure Runways

ID Width Length Bearing (true) Bearing (mag) Surface Threshold Offset Overrun Length
08 193 ft / 59 m 5,956 ft / 1,816 m 76.91° 74.82° Concrete 0 ft / 0 m 0 ft / 0 m
15 197 ft / 60 m 12,802 ft / 3,902 m 154.86° 152.77° Concrete 0 ft / 0 m 0 ft / 0 m
26 193 ft / 59 m 5,956 ft / 1,816 m 256.93° 254.84° Concrete 722 ft / 220 m 0 ft / 0 m
33 197 ft / 60 m 12,802 ft / 3,902 m 334.88° 332.79° Concrete 3,675 ft / 1,120 m 0 ft / 0 m

LFBE

Details ICAO LFBE (EGC)
Name Bergerac Roumaniere
Region France
Timezone Europe/Paris (UTC+1.0)
Stats Elevation 171 ft / 52 m (AMSL)
Location 44.824525° 0.518776°
Runways 1
Magnetic Variation 0.291° E

METAR

LFBE 181630Z AUTO 35005KT CAVOK 09/06 Q1024 NOSIG

Decode

TAF

TAF LFBE 181100Z 1812/1912 25010KT 4500 -DZ OVC006 TEMPO 1812/1814 2500 RADZ OVC002 BECMG 1814/1816 01010KT 9999 BKN020 BECMG 1818/1821 VRB03KT CAVOK PROB40 TEMPO 1900/1906 3000 BR NSC BECMG 1910/1912 34005KT

Decode

Destination Runways

ID Width Length Bearing (true) Bearing (mag) Surface Threshold Offset Overrun Length
10 148 ft / 45 m 7,178 ft / 2,188 m 94.33° 94.04° Asphalt 687 ft / 209 m 0 ft / 0 m
28 148 ft / 45 m 7,178 ft / 2,188 m 274.35° 274.06° Asphalt 804 ft / 245 m 0 ft / 0 m

Approach Navaids

Runway Type Ident Frequency Range Bearing (true) Bearing (mag) Slope Elevation
28 Localiser RM 108.15 MHz 18 nm / 33 km 274.33° 274.04° - 184 ft / 56 m (AMSL)
28 Glidescope RM 108.15 MHz 10 nm / 19 km 274.34° 274.05° 3.00° 220 ft / 67 m (AMSL)